sensor_id;sensor_type;location;lat;lon;timestamp;pressure;altitude;pressure_sealevel;temperature;humidity
75447;BME280;64024;55.820;37.574;2023-11-21T00:02:22;98292.84;;;13.02;42.23
75447;BME280;64024;55.820;37.574;2023-11-21T00:04:49;98289.28;;;12.97;42.39
75447;BME280;64024;55.820;37.574;2023-11-21T00:07:15;98289.75;;;12.93;42.13
75447;BME280;64024;55.820;37.574;2023-11-21T00:09:42;98300.94;;;12.90;42.19
75447;BME280;64024;55.820;37.574;2023-11-21T00:12:09;98287.84;;;12.89;42.31
75447;BME280;64024;55.820;37.574;2023-11-21T00:14:37;98291.00;;;12.86;42.39
75447;BME280;64024;55.820;37.574;2023-11-21T00:17:04;98301.69;;;12.86;42.27
75447;BME280;64024;55.820;37.574;2023-11-21T00:19:31;98287.78;;;12.84;42.35
75447;BME280;64024;55.820;37.574;2023-11-21T00:21:58;98293.38;;;12.82;42.26
75447;BME280;64024;55.820;37.574;2023-11-21T00:24:25;98296.25;;;12.81;42.19
75447;BME280;64024;55.820;37.574;2023-11-21T00:26:51;98293.03;;;12.79;42.16
75447;BME280;64024;55.820;37.574;2023-11-21T00:29:19;98292.25;;;12.78;42.17
75447;BME280;64024;55.820;37.574;2023-11-21T00:31:45;98271.13;;;12.77;41.93
75447;BME280;64024;55.820;37.574;2023-11-21T00:34:12;98310.31;;;12.76;42.00
75447;BME280;64024;55.820;37.574;2023-11-21T00:36:38;98289.25;;;12.75;42.02
75447;BME280;64024;55.820;37.574;2023-11-21T00:39:04;98284.19;;;12.73;41.96
75447;BME280;64024;55.820;37.574;2023-11-21T00:41:32;98290.78;;;12.71;42.10
75447;BME280;64024;55.820;37.574;2023-11-21T00:43:58;98283.84;;;12.69;41.98
75447;BME280;64024;55.820;37.574;2023-11-21T00:46:25;98284.88;;;12.68;41.95
75447;BME280;64024;55.820;37.574;2023-11-21T00:48:55;98288.59;;;12.67;41.93
75447;BME280;64024;55.820;37.574;2023-11-21T00:51:22;98292.34;;;12.66;41.87
75447;BME280;64024;55.820;37.574;2023-11-21T00:53:48;98289.09;;;12.64;41.78
75447;BME280;64024;55.820;37.574;2023-11-21T00:56:15;98280.28;;;12.64;41.77
75447;BME280;64024;55.820;37.574;2023-11-21T00:58:42;98271.97;;;12.60;41.92
75447;BME280;64024;55.820;37.574;2023-11-21T01:01:12;98279.75;;;12.62;42.07
75447;BME280;64024;55.820;37.574;2023-11-21T01:03:38;98274.88;;;12.59;41.80
75447;BME280;64024;55.820;37.574;2023-11-21T01:06:03;98280.47;;;12.57;42.01
75447;BME280;64024;55.820;37.574;2023-11-21T01:08:34;98282.34;;;12.57;41.99
75447;BME280;64024;55.820;37.574;2023-11-21T01:11:01;98280.97;;;12.54;42.03
75447;BME280;64024;55.820;37.574;2023-11-21T01:13:27;98277.50;;;12.54;41.71
75447;BME280;64024;55.820;37.574;2023-11-21T01:15:55;98275.88;;;12.53;41.96
75447;BME280;64024;55.820;37.574;2023-11-21T01:18:22;98279.56;;;12.52;41.89
75447;BME280;64024;55.820;37.574;2023-11-21T01:20:51;98261.19;;;12.50;41.83
75447;BME280;64024;55.820;37.574;2023-11-21T01:23:19;98287.09;;;12.55;41.67
75447;BME280;64024;55.820;37.574;2023-11-21T01:25:45;98304.47;;;12.57;41.67
75447;BME280;64024;55.820;37.574;2023-11-21T01:28:11;98291.88;;;12.53;41.65
75447;BME280;64024;55.820;37.574;2023-11-21T01:30:38;98289.91;;;12.48;41.61
75447;BME280;64024;55.820;37.574;2023-11-21T01:33:04;98285.31;;;12.43;41.58
75447;BME280;64024;55.820;37.574;2023-11-21T01:35:32;98267.72;;;12.42;41.87
75447;BME280;64024;55.820;37.574;2023-11-21T01:37:57;98290.34;;;12.40;41.51
75447;BME280;64024;55.820;37.574;2023-11-21T01:40:24;98270.06;;;12.39;41.76
75447;BME280;64024;55.820;37.574;2023-11-21T01:42:49;98291.63;;;12.37;41.70
75447;BME280;64024;55.820;37.574;2023-11-21T01:45:16;98288.97;;;12.37;41.68
75447;BME280;64024;55.820;37.574;2023-11-21T01:47:43;98310.53;;;12.36;41.83
75447;BME280;64024;55.820;37.574;2023-11-21T01:50:14;98287.59;;;12.35;41.67
75447;BME280;64024;55.820;37.574;2023-11-21T01:52:44;98298.50;;;12.33;41.73
75447;BME280;64024;55.820;37.574;2023-11-21T01:55:11;98287.03;;;12.33;41.76
75447;BME280;64024;55.820;37.574;2023-11-21T01:57:38;98272.09;;;12.32;41.77
75447;BME280;64024;55.820;37.574;2023-11-21T02:00:05;98273.13;;;12.31;41.78
75447;BME280;64024;55.820;37.574;2023-11-21T02:02:44;98267.81;;;12.31;41.63
75447;BME280;64024;55.820;37.574;2023-11-21T02:05:11;98276.31;;;12.28;41.75
75447;BME280;64024;55.820;37.574;2023-11-21T02:07:42;98262.16;;;12.27;41.61
75447;BME280;64024;55.820;37.574;2023-11-21T02:10:14;98276.78;;;12.25;41.68
75447;BME280;64024;55.820;37.574;2023-11-21T02:12:41;98257.16;;;12.31;41.60
75447;BME280;64024;55.820;37.574;2023-11-21T02:15:10;98275.47;;;12.27;41.62
75447;BME280;64024;55.820;37.574;2023-11-21T02:17:43;98275.97;;;12.24;41.40
75447;BME280;64024;55.820;37.574;2023-11-21T02:20:11;98259.41;;;12.22;41.73
75447;BME280;64024;55.820;37.574;2023-11-21T02:22:43;98264.19;;;12.20;41.66
75447;BME280;64024;55.820;37.574;2023-11-21T02:25:10;98274.03;;;12.19;41.83
75447;BME280;64024;55.820;37.574;2023-11-21T02:27:36;98278.78;;;12.17;41.50
75447;BME280;64024;55.820;37.574;2023-11-21T02:30:03;98293.97;;;12.17;41.64
75447;BME280;64024;55.820;37.574;2023-11-21T02:32:30;98297.69;;;12.16;41.77
75447;BME280;64024;55.820;37.574;2023-11-21T02:34:57;98288.06;;;12.15;41.79
75447;BME280;64024;55.820;37.574;2023-11-21T02:37:27;98295.25;;;12.14;41.97
75447;BME280;64024;55.820;37.574;2023-11-21T02:39:54;98295.25;;;12.14;42.24
75447;BME280;64024;55.820;37.574;2023-11-21T02:42:20;98291.56;;;12.15;42.25
75447;BME280;64024;55.820;37.574;2023-11-21T02:44:46;98312.34;;;12.18;42.29
75447;BME280;64024;55.820;37.574;2023-11-21T02:47:12;98296.22;;;12.25;42.53
75447;BME280;64024;55.820;37.574;2023-11-21T02:49:39;98297.44;;;12.34;42.67
75447;BME280;64024;55.820;37.574;2023-11-21T02:52:06;98311.97;;;12.43;42.50
75447;BME280;64024;55.820;37.574;2023-11-21T02:54:34;98314.00;;;12.53;42.69
75447;BME280;64024;55.820;37.574;2023-11-21T02:57:03;98307.75;;;12.64;42.38
75447;BME280;64024;55.820;37.574;2023-11-21T02:59:29;98297.00;;;12.76;42.60
75447;BME280;64024;55.820;37.574;2023-11-21T03:01:55;98284.38;;;12.88;42.86
75447;BME280;64024;55.820;37.574;2023-11-21T03:04:23;98300.84;;;13.02;42.65
75447;BME280;64024;55.820;37.574;2023-11-21T03:06:48;98305.81;;;13.15;42.57
75447;BME280;64024;55.820;37.574;2023-11-21T03:09:14;98310.81;;;13.29;42.26
75447;BME280;64024;55.820;37.574;2023-11-21T03:11:42;98312.03;;;13.43;41.99
75447;BME280;64024;55.820;37.574;2023-11-21T03:14:07;98302.81;;;13.56;42.25
75447;BME280;64024;55.820;37.574;2023-11-21T03:16:34;98306.72;;;13.70;41.97
75447;BME280;64024;55.820;37.574;2023-11-21T03:19:01;98294.84;;;13.83;41.89
75447;BME280;64024;55.820;37.574;2023-11-21T03:21:27;98311.03;;;13.98;41.61
75447;BME280;64024;55.820;37.574;2023-11-21T03:23:55;98293.78;;;14.11;41.83
75447;BME280;64024;55.820;37.574;2023-11-21T03:26:22;98297.91;;;14.24;41.32
75447;BME280;64024;55.820;37.574;2023-11-21T03:28:49;98279.28;;;14.39;41.50
75447;BME280;64024;55.820;37.574;2023-11-21T03:31:15;98289.03;;;14.50;41.55
75447;BME280;64024;55.820;37.574;2023-11-21T03:33:45;98285.66;;;14.65;41.42
75447;BME280;64024;55.820;37.574;2023-11-21T03:36:11;98290.81;;;14.77;41.98
75447;BME280;64024;55.820;37.574;2023-11-21T03:38:37;98304.81;;;14.89;41.73
75447;BME280;64024;55.820;37.574;2023-11-21T03:41:05;98302.47;;;15.03;41.26
75447;BME280;64024;55.820;37.574;2023-11-21T03:43:32;98311.91;;;15.15;41.28
75447;BME280;64024;55.820;37.574;2023-11-21T03:45:58;98316.25;;;15.27;41.20
75447;BME280;64024;55.820;37.574;2023-11-21T03:48:24;98314.16;;;15.39;40.70
75447;BME280;64024;55.820;37.574;2023-11-21T03:50:50;98313.09;;;15.50;40.59
75447;BME280;64024;55.820;37.574;2023-11-21T03:53:16;98311.28;;;15.61;40.63
75447;BME280;64024;55.820;37.574;2023-11-21T03:55:43;98312.97;;;15.72;40.18
75447;BME280;64024;55.820;37.574;2023-11-21T03:58:09;98314.03;;;15.81;40.04
75447;BME280;64024;55.820;37.574;2023-11-21T04:00:35;98303.88;;;15.94;40.34
75447;BME280;64024;55.820;37.574;2023-11-21T04:03:02;98331.50;;;16.04;39.63
75447;BME280;64024;55.820;37.574;2023-11-21T04:05:29;98307.41;;;16.14;39.69
75447;BME280;64024;55.820;37.574;2023-11-21T04:07:56;98325.34;;;16.24;39.72
75447;BME280;64024;55.820;37.574;2023-11-21T04:10:23;98312.78;;;16.35;39.59
75447;BME280;64024;55.820;37.574;2023-11-21T04:12:49;98317.31;;;16.45;39.38
75447;BME280;64024;55.820;37.574;2023-11-21T04:15:17;98321.88;;;16.54;39.09
75447;BME280;64024;55.820;37.574;2023-11-21T04:17:42;98324.00;;;16.62;39.07
75447;BME280;64024;55.820;37.574;2023-11-21T04:20:10;98318.91;;;16.71;38.88
75447;BME280;64024;55.820;37.574;2023-11-21T04:22:38;98307.66;;;16.79;38.99
75447;BME280;64024;55.820;37.574;2023-11-21T04:25:14;98307.66;;;16.89;38.44
75447;BME280;64024;55.820;37.574;2023-11-21T04:27:41;98315.13;;;16.98;38.24
75447;BME280;64024;55.820;37.574;2023-11-21T04:30:11;98329.09;;;17.05;38.28
75447;BME280;64024;55.820;37.574;2023-11-21T04:32:37;98323.97;;;17.13;37.95
75447;BME280;64024;55.820;37.574;2023-11-21T04:35:04;98325.53;;;17.20;37.70
75447;BME280;64024;55.820;37.574;2023-11-21T04:37:31;98346.47;;;17.28;37.83
75447;BME280;64024;55.820;37.574;2023-11-21T04:39:57;98345.38;;;17.34;37.62
75447;BME280;64024;55.820;37.574;2023-11-21T04:42:23;98338.91;;;17.40;37.38
75447;BME280;64024;55.820;37.574;2023-11-21T04:44:50;98344.00;;;17.47;37.30
75447;BME280;64024;55.820;37.574;2023-11-21T04:47:17;98340.75;;;17.55;37.21
75447;BME280;64024;55.820;37.574;2023-11-21T04:49:46;98336.94;;;17.61;37.00
75447;BME280;64024;55.820;37.574;2023-11-21T04:52:15;98337.72;;;17.67;36.88
75447;BME280;64024;55.820;37.574;2023-11-21T04:54:41;98335.81;;;17.72;36.97
75447;BME280;64024;55.820;37.574;2023-11-21T04:57:10;98343.88;;;17.77;36.76
75447;BME280;64024;55.820;37.574;2023-11-21T04:59:36;98348.16;;;17.83;36.52
75447;BME280;64024;55.820;37.574;2023-11-21T05:02:02;98354.31;;;17.89;36.11
75447;BME280;64024;55.820;37.574;2023-11-21T05:04:28;98345.44;;;17.88;35.77
75447;BME280;64024;55.820;37.574;2023-11-21T05:06:54;98358.34;;;17.86;35.72
75447;BME280;64024;55.820;37.574;2023-11-21T05:09:21;98357.84;;;17.79;35.62
75447;BME280;64024;55.820;37.574;2023-11-21T05:11:48;98346.28;;;17.74;35.72
75447;BME280;64024;55.820;37.574;2023-11-21T05:14:15;98341.47;;;17.65;35.61
75447;BME280;64024;55.820;37.574;2023-11-21T05:16:41;98359.81;;;17.58;35.53
75447;BME280;64024;55.820;37.574;2023-11-21T05:19:07;98344.25;;;17.50;35.38
75447;BME280;64024;55.820;37.574;2023-11-21T05:21:35;98342.13;;;17.42;35.26
75447;BME280;64024;55.820;37.574;2023-11-21T05:24:02;98350.75;;;17.34;35.51
75447;BME280;64024;55.820;37.574;2023-11-21T05:26:28;98347.00;;;17.25;35.19
75447;BME280;64024;55.820;37.574;2023-11-21T05:28:54;98336.81;;;17.17;35.33
75447;BME280;64024;55.820;37.574;2023-11-21T05:31:21;98328.53;;;17.08;35.28
75447;BME280;64024;55.820;37.574;2023-11-21T05:33:48;98325.34;;;17.01;35.09
75447;BME280;64024;55.820;37.574;2023-11-21T05:36:16;98353.53;;;16.93;35.00
75447;BME280;64024;55.820;37.574;2023-11-21T05:38:42;98341.75;;;16.84;35.16
75447;BME280;64024;55.820;37.574;2023-11-21T05:41:09;98342.00;;;16.77;35.31
75447;BME280;64024;55.820;37.574;2023-11-21T05:43:41;98335.28;;;16.70;35.09
75447;BME280;64024;55.820;37.574;2023-11-21T05:46:08;98345.75;;;16.61;35.31
75447;BME280;64024;55.820;37.574;2023-11-21T05:48:35;98331.53;;;16.55;35.57
75447;BME280;64024;55.820;37.574;2023-11-21T05:51:07;98342.00;;;16.47;35.54
75447;BME280;64024;55.820;37.574;2023-11-21T05:53:36;98338.50;;;16.41;35.75
75447;BME280;64024;55.820;37.574;2023-11-21T05:56:03;98357.56;;;16.34;35.69
75447;BME280;64024;55.820;37.574;2023-11-21T05:58:31;98378.44;;;16.27;35.93
75447;BME280;64024;55.820;37.574;2023-11-21T06:00:59;98365.28;;;16.21;35.93
75447;BME280;64024;55.820;37.574;2023-11-21T06:03:26;98361.81;;;16.15;36.26
75447;BME280;64024;55.820;37.574;2023-11-21T06:05:53;98363.94;;;16.08;36.44
75447;BME280;64024;55.820;37.574;2023-11-21T06:08:20;98366.88;;;16.01;36.32
75447;BME280;64024;55.820;37.574;2023-11-21T06:10:46;98359.88;;;15.95;36.63
75447;BME280;64024;55.820;37.574;2023-11-21T06:13:15;98378.91;;;15.88;36.80
75447;BME280;64024;55.820;37.574;2023-11-21T06:15:41;98378.06;;;15.83;36.66
75447;BME280;64024;55.820;37.574;2023-11-21T06:18:07;98364.66;;;15.78;36.66
75447;BME280;64024;55.820;37.574;2023-11-21T06:20:36;98385.28;;;15.72;37.00
75447;BME280;64024;55.820;37.574;2023-11-21T06:23:03;98379.06;;;15.66;36.83
75447;BME280;64024;55.820;37.574;2023-11-21T06:25:29;98361.38;;;15.60;36.81
75447;BME280;64024;55.820;37.574;2023-11-21T06:27:59;98385.44;;;15.55;36.66
75447;BME280;64024;55.820;37.574;2023-11-21T06:30:27;98382.72;;;15.50;37.25
75447;BME280;64024;55.820;37.574;2023-11-21T06:32:55;98358.59;;;15.45;37.19
75447;BME280;64024;55.820;37.574;2023-11-21T06:35:22;98376.53;;;15.39;37.14
75447;BME280;64024;55.820;37.574;2023-11-21T06:37:49;98374.63;;;15.35;37.29
75447;BME280;64024;55.820;37.574;2023-11-21T06:40:18;98375.41;;;15.30;37.24
75447;BME280;64024;55.820;37.574;2023-11-21T06:42:44;98386.06;;;15.25;37.26
75447;BME280;64024;55.820;37.574;2023-11-21T06:45:13;98403.72;;;15.21;37.52
75447;BME280;64024;55.820;37.574;2023-11-21T06:47:39;98409.06;;;15.16;37.45
75447;BME280;64024;55.820;37.574;2023-11-21T06:50:07;98392.97;;;15.11;37.64
75447;BME280;64024;55.820;37.574;2023-11-21T06:52:34;98400.97;;;15.06;37.32
75447;BME280;64024;55.820;37.574;2023-11-21T06:55:00;98405.22;;;15.02;37.89
75447;BME280;64024;55.820;37.574;2023-11-21T06:57:27;98403.31;;;14.97;37.63
75447;BME280;64024;55.820;37.574;2023-11-21T06:59:53;98397.91;;;14.92;37.80
75447;BME280;64024;55.820;37.574;2023-11-21T07:02:19;98404.03;;;14.87;38.07
75447;BME280;64024;55.820;37.574;2023-11-21T07:04:48;98410.94;;;14.83;38.32
75447;BME280;64024;55.820;37.574;2023-11-21T07:07:14;98416.00;;;14.80;37.98
75447;BME280;64024;55.820;37.574;2023-11-21T07:09:41;98403.41;;;14.75;38.17
75447;BME280;64024;55.820;37.574;2023-11-21T07:12:09;98421.03;;;14.71;38.01
75447;BME280;64024;55.820;37.574;2023-11-21T07:14:36;98407.34;;;14.67;38.37
75447;BME280;64024;55.820;37.574;2023-11-21T07:17:06;98413.47;;;14.63;38.21
75447;BME280;64024;55.820;37.574;2023-11-21T07:19:32;98404.34;;;14.59;37.96
75447;BME280;64024;55.820;37.574;2023-11-21T07:21:59;98384.50;;;14.55;38.30
75447;BME280;64024;55.820;37.574;2023-11-21T07:24:25;98418.97;;;14.51;38.47
75447;BME280;64024;55.820;37.574;2023-11-21T07:26:52;98423.16;;;14.47;38.37
75447;BME280;64024;55.820;37.574;2023-11-21T07:29:24;98421.84;;;14.45;38.22
75447;BME280;64024;55.820;37.574;2023-11-21T07:31:55;98382.22;;;14.41;38.20
75447;BME280;64024;55.820;37.574;2023-11-21T07:34:21;98430.03;;;14.38;38.24
75447;BME280;64024;55.820;37.574;2023-11-21T07:36:48;98434.28;;;14.34;38.26
75447;BME280;64024;55.820;37.574;2023-11-21T07:39:14;98421.44;;;14.31;38.41
75447;BME280;64024;55.820;37.574;2023-11-21T07:41:42;98420.06;;;14.28;38.13
75447;BME280;64024;55.820;37.574;2023-11-21T07:44:15;98422.16;;;14.26;38.38
75447;BME280;64024;55.820;37.574;2023-11-21T07:46:42;98419.75;;;14.25;38.50
75447;BME280;64024;55.820;37.574;2023-11-21T07:49:08;98408.56;;;14.28;38.87
75447;BME280;64024;55.820;37.574;2023-11-21T07:51:35;98408.88;;;14.31;38.75
75447;BME280;64024;55.820;37.574;2023-11-21T07:54:01;98389.41;;;14.36;38.63
75447;BME280;64024;55.820;37.574;2023-11-21T07:56:27;98383.84;;;14.42;38.46
75447;BME280;64024;55.820;37.574;2023-11-21T07:58:55;98407.97;;;14.48;38.48
75447;BME280;64024;55.820;37.574;2023-11-21T08:01:23;98412.63;;;14.57;38.67
75447;BME280;64024;55.820;37.574;2023-11-21T08:03:50;98414.56;;;14.67;38.57
75447;BME280;64024;55.820;37.574;2023-11-21T08:06:20;98400.50;;;14.77;38.68
75447;BME280;64024;55.820;37.574;2023-11-21T08:08:47;98387.19;;;14.87;38.68
75447;BME280;64024;55.820;37.574;2023-11-21T08:11:14;98385.94;;;15.00;38.60
75447;BME280;64024;55.820;37.574;2023-11-21T08:13:40;98377.44;;;15.13;38.69
75447;BME280;64024;55.820;37.574;2023-11-21T08:16:07;98388.25;;;15.28;38.64
75447;BME280;64024;55.820;37.574;2023-11-21T08:18:34;98371.72;;;15.47;37.92
75447;BME280;64024;55.820;37.574;2023-11-21T08:21:01;98374.78;;;15.65;37.75
75447;BME280;64024;55.820;37.574;2023-11-21T08:23:27;98377.81;;;15.84;37.79
75447;BME280;64024;55.820;37.574;2023-11-21T08:25:55;98372.25;;;16.01;37.54
75447;BME280;64024;55.820;37.574;2023-11-21T08:28:24;98361.53;;;16.16;37.61
75447;BME280;64024;55.820;37.574;2023-11-21T08:30:54;98396.94;;;16.34;35.90
75447;BME280;64024;55.820;37.574;2023-11-21T08:33:20;98364.78;;;16.44;34.59
75447;BME280;64024;55.820;37.574;2023-11-21T08:35:47;98365.34;;;16.56;34.36
75447;BME280;64024;55.820;37.574;2023-11-21T08:38:14;98348.69;;;16.70;34.21
75447;BME280;64024;55.820;37.574;2023-11-21T08:40:41;98346.84;;;16.85;34.41
75447;BME280;64024;55.820;37.574;2023-11-21T08:43:08;98347.34;;;17.03;34.43
75447;BME280;64024;55.820;37.574;2023-11-21T08:45:38;98350.25;;;17.22;34.63
75447;BME280;64024;55.820;37.574;2023-11-21T08:48:07;98355.56;;;17.42;34.43
75447;BME280;64024;55.820;37.574;2023-11-21T08:50:38;98357.63;;;17.60;34.51
75447;BME280;64024;55.820;37.574;2023-11-21T08:53:04;98353.03;;;17.76;34.41
75447;BME280;64024;55.820;37.574;2023-11-21T08:55:32;98352.66;;;17.93;34.47
75447;BME280;64024;55.820;37.574;2023-11-21T08:58:03;98356.59;;;18.11;34.06
75447;BME280;64024;55.820;37.574;2023-11-21T09:00:32;98357.34;;;18.22;33.76
75447;BME280;64024;55.820;37.574;2023-11-21T09:02:59;98363.47;;;18.27;33.75
75447;BME280;64024;55.820;37.574;2023-11-21T09:05:30;98364.81;;;18.30;33.75
75447;BME280;64024;55.820;37.574;2023-11-21T09:07:57;98366.69;;;18.29;33.55
75447;BME280;64024;55.820;37.574;2023-11-21T09:10:26;98375.56;;;18.30;33.78
75447;BME280;64024;55.820;37.574;2023-11-21T09:12:54;98423.19;;;18.29;33.67
75447;BME280;64024;55.820;37.574;2023-11-21T09:15:21;98403.84;;;18.22;32.24
75447;BME280;64024;55.820;37.574;2023-11-21T09:17:48;98378.97;;;18.01;31.77
75447;BME280;64024;55.820;37.574;2023-11-21T09:20:15;98374.47;;;17.86;32.20
75447;BME280;64024;55.820;37.574;2023-11-21T09:22:44;98374.25;;;17.78;32.26
75447;BME280;64024;55.820;37.574;2023-11-21T09:25:10;98391.16;;;17.73;32.40
75447;BME280;64024;55.820;37.574;2023-11-21T09:27:37;98392.53;;;17.65;32.42
75447;BME280;64024;55.820;37.574;2023-11-21T09:30:06;98384.78;;;17.59;32.57
75447;BME280;64024;55.820;37.574;2023-11-21T09:32:37;98379.97;;;17.51;33.00
75447;BME280;64024;55.820;37.574;2023-11-21T09:35:04;98388.31;;;17.44;32.93
75447;BME280;64024;55.820;37.574;2023-11-21T09:37:34;98393.16;;;17.37;33.24
75447;BME280;64024;55.820;37.574;2023-11-21T09:40:02;98381.91;;;17.30;33.40
75447;BME280;64024;55.820;37.574;2023-11-21T09:42:39;98382.47;;;17.22;33.29
75447;BME280;64024;55.820;37.574;2023-11-21T09:45:18;98384.34;;;17.21;33.80
75447;BME280;64024;55.820;37.574;2023-11-21T09:47:47;98392.94;;;17.23;33.89
75447;BME280;64024;55.820;37.574;2023-11-21T09:50:17;98390.50;;;17.27;34.08
75447;BME280;64024;55.820;37.574;2023-11-21T09:53:03;98389.69;;;17.31;34.14
75447;BME280;64024;55.820;37.574;2023-11-21T09:55:36;98406.88;;;17.35;34.26
75447;BME280;64024;55.820;37.574;2023-11-21T09:58:05;98407.13;;;17.39;34.18
75447;BME280;64024;55.820;37.574;2023-11-21T10:00:40;98417.06;;;17.44;34.29
75447;BME280;64024;55.820;37.574;2023-11-21T10:03:09;98404.97;;;17.46;34.23
75447;BME280;64024;55.820;37.574;2023-11-21T10:05:36;98398.78;;;17.51;34.29
75447;BME280;64024;55.820;37.574;2023-11-21T10:08:08;98408.41;;;17.57;34.27
75447;BME280;64024;55.820;37.574;2023-11-21T10:10:37;98413.50;;;17.63;34.31
75447;BME280;64024;55.820;37.574;2023-11-21T10:13:06;98403.03;;;17.67;34.29
75447;BME280;64024;55.820;37.574;2023-11-21T10:15:38;98404.34;;;17.80;34.22
75447;BME280;64024;55.820;37.574;2023-11-21T10:18:07;98407.00;;;17.85;34.17
75447;BME280;64024;55.820;37.574;2023-11-21T10:20:33;98410.22;;;17.87;34.18
75447;BME280;64024;55.820;37.574;2023-11-21T10:23:00;98417.47;;;17.92;34.36
75447;BME280;64024;55.820;37.574;2023-11-21T10:25:30;98409.09;;;17.98;33.96
75447;BME280;64024;55.820;37.574;2023-11-21T10:28:02;98399.38;;;18.02;33.53
75447;BME280;64024;55.820;37.574;2023-11-21T10:30:36;98416.06;;;18.04;33.68
75447;BME280;64024;55.820;37.574;2023-11-21T10:33:04;98412.53;;;18.04;33.44
75447;BME280;64024;55.820;37.574;2023-11-21T10:35:48;98405.06;;;18.01;33.23
75447;BME280;64024;55.820;37.574;2023-11-21T10:38:19;98406.69;;;17.97;33.20
75447;BME280;64024;55.820;37.574;2023-11-21T10:40:52;98412.91;;;17.92;33.20
75447;BME280;64024;55.820;37.574;2023-11-21T10:43:25;98420.69;;;17.88;33.04
75447;BME280;64024;55.820;37.574;2023-11-21T10:45:52;98400.28;;;17.82;33.06
75447;BME280;64024;55.820;37.574;2023-11-21T10:48:18;98404.88;;;17.77;33.06
75447;BME280;64024;55.820;37.574;2023-11-21T10:50:45;98399.50;;;17.72;33.07
75447;BME280;64024;55.820;37.574;2023-11-21T10:53:13;98401.41;;;17.66;33.08
75447;BME280;64024;55.820;37.574;2023-11-21T10:55:40;98400.63;;;17.60;33.21
75447;BME280;64024;55.820;37.574;2023-11-21T10:58:08;98407.91;;;17.55;33.50
75447;BME280;64024;55.820;37.574;2023-11-21T11:00:37;98410.06;;;17.48;33.46
75447;BME280;64024;55.820;37.574;2023-11-21T11:03:06;98407.66;;;17.41;33.51
75447;BME280;64024;55.820;37.574;2023-11-21T11:05:40;98417.91;;;17.34;33.57
75447;BME280;64024;55.820;37.574;2023-11-21T11:08:17;98415.47;;;17.27;33.50
75447;BME280;64024;55.820;37.574;2023-11-21T11:10:45;98421.41;;;17.19;33.62
75447;BME280;64024;55.820;37.574;2023-11-21T11:13:15;98412.28;;;17.15;33.69
75447;BME280;64024;55.820;37.574;2023-11-21T11:15:47;98407.72;;;17.15;33.64
75447;BME280;64024;55.820;37.574;2023-11-21T11:18:16;98413.63;;;17.12;33.64
75447;BME280;64024;55.820;37.574;2023-11-21T11:20:45;98416.31;;;17.07;33.57
75447;BME280;64024;55.820;37.574;2023-11-21T11:26:12;98406.13;;;16.94;33.78
75447;BME280;64024;55.820;37.574;2023-11-21T11:29:35;98412.03;;;16.86;33.83
75447;BME280;64024;55.820;37.574;2023-11-21T11:32:47;98419.81;;;16.77;33.92
75447;BME280;64024;55.820;37.574;2023-11-21T11:35:04;98429.19;;;16.70;34.31
75447;BME280;64024;55.820;37.574;2023-11-21T11:37:34;98436.69;;;16.62;34.36
75447;BME280;64024;55.820;37.574;2023-11-21T11:40:00;98426.22;;;16.56;34.47
75447;BME280;64024;55.820;37.574;2023-11-21T11:42:27;98441.50;;;16.50;34.87
75447;BME280;64024;55.820;37.574;2023-11-21T11:44:54;98441.47;;;16.45;34.74
75447;BME280;64024;55.820;37.574;2023-11-21T11:47:31;98444.69;;;16.42;34.73
75447;BME280;64024;55.820;37.574;2023-11-21T11:50:11;98443.88;;;16.36;34.85
75447;BME280;64024;55.820;37.574;2023-11-21T11:52:50;98433.44;;;16.30;35.12
75447;BME280;64024;55.820;37.574;2023-11-21T11:55:21;98439.84;;;16.24;35.13
75447;BME280;64024;55.820;37.574;2023-11-21T11:57:51;98433.91;;;16.16;35.33
75447;BME280;64024;55.820;37.574;2023-11-21T12:00:19;98424.25;;;16.10;35.21
75447;BME280;64024;55.820;37.574;2023-11-21T12:02:56;98443.53;;;16.02;35.22
75447;BME280;64024;55.820;37.574;2023-11-21T12:05:26;98433.03;;;15.96;35.15
75447;BME280;64024;55.820;37.574;2023-11-21T12:08:03;98444.03;;;15.89;35.36
75447;BME280;64024;55.820;37.574;2023-11-21T12:10:31;98445.31;;;15.81;35.59
75447;BME280;64024;55.820;37.574;2023-11-21T12:13:00;98451.47;;;15.77;35.47
75447;BME280;64024;55.820;37.574;2023-11-21T12:15:27;98442.59;;;15.71;35.51
75447;BME280;64024;55.820;37.574;2023-11-21T12:18:04;98449.78;;;15.65;35.47
75447;BME280;64024;55.820;37.574;2023-11-21T12:20:38;98446.50;;;15.58;35.67
75447;BME280;64024;55.820;37.574;2023-11-21T12:23:09;98444.59;;;15.54;35.61
75447;BME280;64024;55.820;37.574;2023-11-21T12:25:40;98445.38;;;15.49;35.88
75447;BME280;64024;55.820;37.574;2023-11-21T12:28:08;98448.03;;;15.44;36.15
75447;BME280;64024;55.820;37.574;2023-11-21T12:30:35;98453.38;;;15.39;36.26
75447;BME280;64024;55.820;37.574;2023-11-21T12:33:04;98452.53;;;15.33;36.32
75447;BME280;64024;55.820;37.574;2023-11-21T12:35:33;98462.13;;;15.29;36.01
75447;BME280;64024;55.820;37.574;2023-11-21T12:38:03;98457.56;;;15.25;36.32
75447;BME280;64024;55.820;37.574;2023-11-21T12:40:30;98461.28;;;15.19;36.16
75447;BME280;64024;55.820;37.574;2023-11-21T12:42:59;98470.88;;;15.14;36.27
75447;BME280;64024;55.820;37.574;2023-11-21T12:45:28;98460.09;;;15.09;36.45
75447;BME280;64024;55.820;37.574;2023-11-21T12:47:56;98467.88;;;15.06;36.31
75447;BME280;64024;55.820;37.574;2023-11-21T12:50:27;98464.09;;;15.02;36.32
75447;BME280;64024;55.820;37.574;2023-11-21T12:53:05;98464.31;;;15.00;36.61
75447;BME280;64024;55.820;37.574;2023-11-21T12:55:34;98460.31;;;14.98;36.83
75447;BME280;64024;55.820;37.574;2023-11-21T12:58:07;98466.69;;;14.97;36.47
75447;BME280;64024;55.820;37.574;2023-11-21T13:00:47;98462.91;;;14.92;36.80